createdAt,value
2022-08-28T00:01:05.045Z,74.10
2022-08-28T00:04:07.834Z,73.55
2022-08-28T00:07:11.781Z,73.46
2022-08-28T00:10:16.973Z,73.68
2022-08-28T00:13:25.433Z,74.22
2022-08-28T00:16:28.224Z,74.18
2022-08-28T00:19:33.479Z,74.39
2022-08-28T00:22:39.351Z,73.59
2022-08-28T00:25:42.366Z,73.57
2022-08-28T00:28:45.350Z,73.95
2022-08-28T00:31:48.176Z,73.30
2022-08-28T00:34:50.862Z,72.45
2022-08-28T00:37:55.339Z,74.11
2022-08-28T00:41:04.061Z,73.51
2022-08-28T00:44:12.626Z,74.28
2022-08-28T00:47:15.408Z,73.00
2022-08-28T00:50:20.671Z,73.39
2022-08-28T00:53:23.553Z,74.45
2022-08-28T00:56:33.616Z,74.78
2022-08-28T00:59:38.466Z,74.80
2022-08-28T01:02:41.659Z,75.30
2022-08-28T01:05:48.170Z,74.93
2022-08-28T01:08:52.579Z,74.82
2022-08-28T01:12:02.048Z,74.37
2022-08-28T01:15:10.527Z,75.02
2022-08-28T01:18:16.485Z,75.51
2022-08-28T01:21:26.636Z,75.42
2022-08-28T01:24:32.307Z,76.58
2022-08-28T01:27:35.049Z,77.21
2022-08-28T01:30:37.856Z,77.61
2022-08-28T01:33:41.394Z,76.98
2022-08-28T01:36:46.248Z,77.53
2022-08-28T01:39:50.609Z,77.52
2022-08-28T01:42:53.744Z,78.69
2022-08-28T01:46:02.341Z,77.11
2022-08-28T01:49:05.244Z,76.49
2022-08-28T01:52:09.516Z,78.32
2022-08-28T01:55:15.824Z,78.45
2022-08-28T01:58:25.199Z,79.34
2022-08-28T02:01:30.554Z,77.47
2022-08-28T02:04:33.928Z,78.55
2022-08-28T02:07:36.888Z,78.95
2022-08-28T02:10:44.590Z,78.96
2022-08-28T02:13:47.344Z,78.68
2022-08-28T02:16:53.636Z,78.20
2022-08-28T02:19:56.462Z,78.25
2022-08-28T02:22:59.473Z,79.47
2022-08-28T02:26:03.714Z,79.09
2022-08-28T02:29:06.790Z,77.57
2022-08-28T02:32:09.456Z,79.00
2022-08-28T02:35:13.877Z,78.68
2022-08-28T02:38:17.099Z,78.62
2022-08-28T02:41:23.330Z,78.00
2022-08-28T02:44:25.988Z,78.02
2022-08-28T02:47:29.180Z,77.43
2022-08-28T02:50:32.175Z,76.84
2022-08-28T02:53:35.149Z,77.62
2022-08-28T02:56:39.297Z,76.97
2022-08-28T02:59:43.499Z,76.75
2022-08-28T03:02:46.917Z,77.61
2022-08-28T03:05:49.943Z,76.45
2022-08-28T03:08:52.578Z,76.85
2022-08-28T03:11:56.969Z,75.55
2022-08-28T03:14:59.813Z,77.60
2022-08-28T03:18:02.558Z,76.80
2022-08-28T03:21:11.371Z,75.68
2022-08-28T03:24:15.157Z,75.45
2022-08-28T03:27:19.777Z,75.94
2022-08-28T03:30:23.909Z,76.53
2022-08-28T03:33:27.511Z,75.86
2022-08-28T03:36:31.481Z,75.84
2022-08-28T03:39:34.234Z,76.03
2022-08-28T03:42:38.735Z,75.87
2022-08-28T03:45:42.405Z,75.87
2022-08-28T03:48:46.122Z,75.53
2022-08-28T03:51:49.097Z,74.47
2022-08-28T03:54:52.057Z,74.40
2022-08-28T03:57:56.465Z,74.40
2022-08-28T04:00:59.130Z,75.66
2022-08-28T04:04:02.192Z,75.67
2022-08-28T04:07:04.847Z,74.48
2022-08-28T04:10:09.005Z,75.17
2022-08-28T04:13:14.977Z,74.28
2022-08-28T04:16:19.666Z,75.23
2022-08-28T04:19:22.538Z,74.57
2022-08-28T04:22:25.322Z,74.42
2022-08-28T04:25:28.361Z,74.38
2022-08-28T04:28:32.987Z,74.88
2022-08-28T04:31:36.447Z,75.05
2022-08-28T04:34:39.503Z,74.81
2022-08-28T04:37:43.788Z,75.00
2022-08-28T04:40:46.572Z,75.01
2022-08-28T04:43:52.822Z,75.64
2022-08-28T04:46:55.533Z,74.32
2022-08-28T04:50:02.393Z,74.96
2022-08-28T04:53:05.115Z,74.97
2022-08-28T04:56:11.448Z,75.67
2022-08-28T04:59:16.370Z,74.69
2022-08-28T05:02:19.257Z,75.39
2022-08-28T05:05:21.858Z,75.85
2022-08-28T05:08:27.877Z,75.17
2022-08-28T05:11:34.326Z,75.52
2022-08-28T05:14:40.013Z,75.16
2022-08-28T05:17:42.647Z,74.96
2022-08-28T05:20:47.843Z,74.98
2022-08-28T05:23:52.882Z,76.13
2022-08-28T05:26:56.954Z,76.19
2022-08-28T05:30:02.340Z,75.66
2022-08-28T05:33:05.301Z,74.29
2022-08-28T05:36:09.155Z,73.88
2022-08-28T05:39:14.761Z,74.94
2022-08-28T05:42:17.792Z,74.99
2022-08-28T05:45:22.653Z,75.52
2022-08-28T05:48:25.305Z,74.62
2022-08-28T05:51:34.460Z,74.50
2022-08-28T05:54:37.304Z,74.28
2022-08-28T05:57:39.994Z,74.08
2022-08-28T06:00:44.866Z,75.17
2022-08-28T06:03:55.214Z,74.94
2022-08-28T06:06:58.904Z,75.34
2022-08-28T06:10:01.945Z,76.29
2022-08-28T06:13:05.920Z,75.44
2022-08-28T06:16:14.037Z,74.94
2022-08-28T06:19:19.040Z,73.64
2022-08-28T06:22:23.590Z,72.88
2022-08-28T06:25:27.518Z,73.25
2022-08-28T06:28:31.098Z,73.44
2022-08-28T06:31:36.948Z,72.97
2022-08-28T06:34:40.618Z,72.24
2022-08-28T06:37:44.570Z,72.32
2022-08-28T06:40:50.439Z,72.51
2022-08-28T06:43:54.106Z,72.07
2022-08-28T06:46:59.500Z,73.15
2022-08-28T06:50:03.206Z,71.10
2022-08-28T06:53:07.256Z,71.19
2022-08-28T06:56:16.210Z,71.51
2022-08-28T06:59:31.031Z,72.15
2022-08-28T07:02:36.587Z,72.04
2022-08-28T07:05:40.374Z,71.62
2022-08-28T07:08:45.825Z,71.39
2022-08-28T07:11:48.692Z,69.58
2022-08-28T07:14:51.349Z,70.88
2022-08-28T07:17:55.367Z,70.17
2022-08-28T07:21:00.567Z,69.69
2022-08-28T07:24:05.182Z,69.52
2022-08-28T07:27:09.063Z,70.67
2022-08-28T07:30:13.126Z,70.40
2022-08-28T07:33:17.306Z,70.35
2022-08-28T07:36:29.055Z,70.15
2022-08-28T07:39:32.694Z,69.67
2022-08-28T07:42:55.106Z,69.70
2022-08-28T07:45:59.648Z,70.99
2022-08-28T07:49:03.800Z,69.90
2022-08-28T07:52:08.772Z,71.25
2022-08-28T07:55:11.443Z,71.67
2022-08-28T07:58:14.478Z,71.07
2022-08-28T08:01:18.020Z,72.43
2022-08-28T08:04:25.042Z,70.48
2022-08-28T08:07:28.839Z,71.29
2022-08-28T08:10:34.353Z,70.80
2022-08-28T08:13:39.259Z,69.82
2022-08-28T08:16:45.231Z,70.38
2022-08-28T08:19:49.354Z,69.67
2022-08-28T08:22:51.969Z,69.27
2022-08-28T08:25:56.210Z,69.68
2022-08-28T08:28:59.521Z,69.54
2022-08-28T08:32:06.096Z,68.66
2022-08-28T08:35:12.790Z,68.37
2022-08-28T08:38:15.746Z,67.66
2022-08-28T08:41:23.091Z,68.01
2022-08-28T08:44:33.544Z,68.75
2022-08-28T08:47:42.430Z,69.36
2022-08-28T08:50:46.640Z,69.72
2022-08-28T08:53:55.672Z,69.92
2022-08-28T08:56:58.413Z,69.38
2022-08-28T09:00:01.489Z,70.39
2022-08-28T09:03:08.318Z,69.86
2022-08-28T09:06:20.441Z,69.31
2022-08-28T09:09:30.378Z,68.32
2022-08-28T09:12:50.326Z,69.18
2022-08-28T09:15:52.989Z,68.79
2022-08-28T09:18:59.160Z,68.56
2022-08-28T09:22:03.449Z,69.50
2022-08-28T09:25:06.775Z,68.75
2022-08-28T09:28:10.536Z,67.76
2022-08-28T09:31:15.969Z,68.69
2022-08-28T09:34:26.875Z,69.70
2022-08-28T09:37:32.900Z,69.39
2022-08-28T09:40:49.629Z,69.15
2022-08-28T09:43:52.480Z,70.50
2022-08-28T09:46:55.277Z,70.43
2022-08-28T09:50:16.103Z,70.59
2022-08-28T09:53:22.851Z,68.74
2022-08-28T09:56:29.648Z,70.85
2022-08-28T09:59:32.804Z,69.78
2022-08-28T10:02:44.083Z,70.10
2022-08-28T10:05:59.256Z,69.54
2022-08-28T10:09:18.349Z,70.59
2022-08-28T10:12:34.346Z,70.00
2022-08-28T10:15:55.255Z,71.07
2022-08-28T10:19:06.758Z,71.85
2022-08-28T10:22:26.232Z,70.75
2022-08-28T10:25:40.081Z,71.25
2022-08-28T10:28:53.034Z,71.64
2022-08-28T10:32:04.710Z,70.96
2022-08-28T10:35:13.822Z,70.38
2022-08-28T10:38:21.537Z,70.56
2022-08-28T10:41:30.860Z,71.63
2022-08-28T10:44:39.828Z,70.52
2022-08-28T10:47:48.622Z,69.74
2022-08-28T10:50:54.476Z,70.55
2022-08-28T10:54:02.944Z,68.82
2022-08-28T10:57:19.016Z,71.02
2022-08-28T11:00:24.011Z,70.75
2022-08-28T11:03:36.682Z,70.91
2022-08-28T11:06:45.231Z,70.57
2022-08-28T11:09:50.183Z,70.56
2022-08-28T11:12:54.394Z,71.33
2022-08-28T11:15:57.295Z,71.52
2022-08-28T11:19:29.533Z,70.08
2022-08-28T11:22:38.281Z,70.35
2022-08-28T11:25:48.988Z,69.97
2022-08-28T11:28:53.667Z,70.57
2022-08-28T11:32:38.118Z,70.26
2022-08-28T11:35:53.375Z,69.38
2022-08-28T11:39:07.097Z,69.96
2022-08-28T11:42:35.757Z,70.65
2022-08-28T11:46:14.577Z,71.07
2022-08-28T11:49:40.267Z,71.26
2022-08-28T11:53:00.852Z,70.58
2022-08-28T11:56:31.809Z,70.89
2022-08-28T11:59:45.322Z,70.55
2022-08-28T12:02:53.411Z,70.35
2022-08-28T12:05:58.174Z,70.09
2022-08-28T12:09:08.267Z,69.06
2022-08-28T12:12:51.948Z,69.37
2022-08-28T12:16:05.245Z,69.30
2022-08-28T12:19:11.127Z,69.82
2022-08-28T12:22:16.180Z,69.70
2022-08-28T12:25:29.167Z,69.66
2022-08-28T12:28:34.305Z,70.22
2022-08-28T12:32:13.730Z,70.83
2022-08-28T12:35:21.771Z,69.76
2022-08-28T12:38:24.551Z,69.68
2022-08-28T12:41:28.247Z,69.82
2022-08-28T12:44:33.817Z,69.72
2022-08-28T12:47:37.966Z,68.91
2022-08-28T12:50:42.146Z,69.09
2022-08-28T12:53:47.818Z,68.83
2022-08-28T12:56:50.756Z,69.79
2022-08-28T13:00:07.592Z,69.09
2022-08-28T13:03:10.425Z,68.19
2022-08-28T13:06:14.848Z,65.95
2022-08-28T13:09:20.126Z,63.71
2022-08-28T13:12:37.813Z,62.94
2022-08-28T13:15:57.856Z,62.39
2022-08-28T13:19:13.478Z,63.06
2022-08-28T13:22:39.647Z,63.00
2022-08-28T13:25:42.326Z,62.06
2022-08-28T13:28:45.211Z,62.11
2022-08-28T13:31:57.542Z,60.44
2022-08-28T13:35:16.615Z,59.58
2022-08-28T13:38:22.305Z,56.80
2022-08-28T13:41:29.908Z,58.77
2022-08-28T13:44:46.369Z,57.90
2022-08-28T13:47:49.038Z,58.75
2022-08-28T13:50:57.734Z,57.23
2022-08-28T13:54:02.068Z,58.73
2022-08-28T13:57:05.553Z,58.58
2022-08-28T14:00:09.894Z,59.39
2022-08-28T14:03:30.268Z,60.29
2022-08-28T14:06:33.209Z,60.95
2022-08-28T14:09:38.488Z,59.59
2022-08-28T14:12:43.408Z,59.01
2022-08-28T14:15:47.405Z,56.40
2022-08-28T14:18:51.442Z,58.11
2022-08-28T14:21:54.107Z,57.56
2022-08-28T14:24:58.611Z,59.27
2022-08-28T14:28:01.262Z,57.67
2022-08-28T14:31:11.071Z,58.80
2022-08-28T14:34:19.560Z,58.06
2022-08-28T14:37:22.244Z,57.75
2022-08-28T14:40:26.252Z,55.88
2022-08-28T14:43:29.635Z,56.80
2022-08-28T14:46:36.618Z,57.95
2022-08-28T14:49:39.471Z,57.17
2022-08-28T14:52:42.233Z,56.69
2022-08-28T14:55:48.662Z,57.00
2022-08-28T14:58:51.400Z,57.32
2022-08-28T15:01:58.303Z,57.23
2022-08-28T15:05:01.031Z,57.48
2022-08-28T15:08:04.796Z,56.86
2022-08-28T15:11:13.221Z,57.28
2022-08-28T15:14:18.201Z,57.18
2022-08-28T15:17:20.976Z,56.54
2022-08-28T15:20:23.939Z,57.19
2022-08-28T15:23:26.575Z,57.40
2022-08-28T15:26:31.334Z,56.25
2022-08-28T15:29:33.966Z,56.82
2022-08-28T15:32:36.910Z,57.13
2022-08-28T15:35:39.703Z,56.77
2022-08-28T15:39:00.070Z,57.04
2022-08-28T15:42:05.480Z,56.44
2022-08-28T15:45:08.694Z,55.96
2022-08-28T15:48:12.118Z,56.59
2022-08-28T15:51:15.496Z,57.24
2022-08-28T15:54:18.740Z,57.92
2022-08-28T15:57:23.249Z,57.58
2022-08-28T16:00:25.945Z,57.97
2022-08-28T16:03:28.928Z,55.96
2022-08-28T16:06:32.009Z,55.61
2022-08-28T16:09:34.654Z,56.26
2022-08-28T16:12:39.595Z,56.56
2022-08-28T16:15:42.255Z,56.49
2022-08-28T16:18:45.714Z,54.31
2022-08-28T16:21:48.874Z,55.94
2022-08-28T16:24:52.122Z,55.28
2022-08-28T16:27:56.733Z,53.98
2022-08-28T16:30:59.415Z,54.34
2022-08-28T16:34:03.509Z,55.29
2022-08-28T16:37:07.947Z,55.80
2022-08-28T16:40:12.747Z,55.21
2022-08-28T16:43:19.159Z,55.71
2022-08-28T16:46:24.328Z,55.55
2022-08-28T16:49:27.366Z,55.42
2022-08-28T16:52:30.264Z,55.46
2022-08-28T16:55:34.077Z,55.49
2022-08-28T16:58:39.267Z,55.98
2022-08-28T17:01:42.604Z,55.87
2022-08-28T17:04:48.283Z,56.74
2022-08-28T17:07:51.954Z,57.20
2022-08-28T17:10:55.802Z,56.90
2022-08-28T17:14:00.409Z,57.26
2022-08-28T17:17:03.321Z,57.96
2022-08-28T17:20:08.209Z,57.25
2022-08-28T17:23:10.254Z,58.77
2022-08-28T17:26:14.668Z,58.89
2022-08-28T17:29:18.893Z,58.75
2022-08-28T17:32:22.452Z,58.87
2022-08-28T17:35:25.182Z,59.13
2022-08-28T17:38:28.102Z,59.02
2022-08-28T17:41:31.548Z,59.29
2022-08-28T17:44:36.957Z,59.34
2022-08-28T17:47:39.631Z,59.85
2022-08-28T17:50:42.489Z,60.05
2022-08-28T17:53:45.130Z,60.62
2022-08-28T17:56:48.317Z,61.48
2022-08-28T17:59:52.345Z,62.48
2022-08-28T18:02:55.048Z,63.43
2022-08-28T18:05:58.039Z,63.60
2022-08-28T18:09:01.126Z,63.92
2022-08-28T18:12:04.227Z,64.44
2022-08-28T18:15:12.521Z,64.84
2022-08-28T18:18:15.546Z,65.15
2022-08-28T18:21:18.354Z,64.95
2022-08-28T18:24:21.065Z,65.01
2022-08-28T18:27:26.457Z,65.67
2022-08-28T18:30:30.792Z,65.16
2022-08-28T18:33:34.319Z,65.06
2022-08-28T18:36:39.481Z,64.78
2022-08-28T18:39:42.322Z,65.00
2022-08-28T18:42:46.850Z,64.75
2022-08-28T18:45:51.820Z,64.65
2022-08-28T18:48:54.495Z,63.83
2022-08-28T18:51:57.245Z,64.37
2022-08-28T18:55:00.739Z,64.25
2022-08-28T18:58:13.265Z,63.91
2022-08-28T19:01:19.895Z,63.55
2022-08-28T19:04:23.652Z,63.19
2022-08-28T19:07:27.387Z,62.97
2022-08-28T19:10:34.988Z,62.27
2022-08-28T19:13:37.946Z,61.85
2022-08-28T19:16:42.177Z,61.95
2022-08-28T19:19:44.773Z,61.82
2022-08-28T19:22:48.921Z,61.84
2022-08-28T19:25:51.602Z,61.88
2022-08-28T19:28:55.309Z,60.82
2022-08-28T19:31:59.997Z,61.10
2022-08-28T19:35:03.504Z,61.58
2022-08-28T19:38:06.454Z,61.79
2022-08-28T19:41:10.323Z,62.13
2022-08-28T19:44:13.420Z,63.07
2022-08-28T19:47:17.410Z,64.61
2022-08-28T19:50:20.974Z,65.21
2022-08-28T19:53:23.595Z,65.64
2022-08-28T19:56:28.182Z,64.46
2022-08-28T19:59:31.003Z,63.59
2022-08-28T20:02:35.411Z,62.86
2022-08-28T20:05:38.185Z,62.97
2022-08-28T20:08:44.288Z,63.07
2022-08-28T20:11:47.082Z,63.03
2022-08-28T20:14:52.864Z,63.08
2022-08-28T20:17:57.747Z,63.15
2022-08-28T20:21:00.677Z,63.07
2022-08-28T20:24:03.622Z,63.01
2022-08-28T20:27:07.135Z,63.16
2022-08-28T20:30:11.021Z,63.26
2022-08-28T20:33:15.593Z,63.24
2022-08-28T20:36:21.096Z,63.37
2022-08-28T20:39:24.497Z,63.45
2022-08-28T20:42:31.699Z,63.40
2022-08-28T20:45:34.707Z,63.18
2022-08-28T20:48:39.099Z,63.24
2022-08-28T20:51:56.931Z,63.20
2022-08-28T20:54:59.677Z,63.37
2022-08-28T20:58:02.581Z,63.28
2022-08-28T21:01:05.814Z,62.69
2022-08-28T21:04:10.141Z,63.14
2022-08-28T21:07:14.029Z,63.15
2022-08-28T21:10:16.803Z,62.97
2022-08-28T21:13:19.570Z,62.90
2022-08-28T21:16:22.914Z,62.71
2022-08-28T21:19:28.541Z,62.73
2022-08-28T21:22:35.311Z,63.06
2022-08-28T21:25:41.484Z,62.92
2022-08-28T21:28:44.465Z,63.04
2022-08-28T21:31:48.586Z,62.84
2022-08-28T21:34:52.829Z,62.18
2022-08-28T21:37:55.476Z,62.50
2022-08-28T21:40:58.262Z,62.29
2022-08-28T21:44:01.146Z,62.32
2022-08-28T21:47:03.936Z,62.55
2022-08-28T21:50:10.800Z,62.35
2022-08-28T21:53:13.421Z,62.39
2022-08-28T21:56:20.156Z,62.27
2022-08-28T21:59:22.824Z,62.08
2022-08-28T22:02:28.602Z,62.52
2022-08-28T22:05:32.638Z,62.58
2022-08-28T22:08:37.168Z,62.47
2022-08-28T22:11:39.909Z,62.23
2022-08-28T22:14:42.536Z,62.52
2022-08-28T22:17:45.313Z,62.66
2022-08-28T22:21:06.969Z,62.27
2022-08-28T22:24:10.585Z,62.12
2022-08-28T22:27:14.426Z,63.28
2022-08-28T22:30:17.723Z,63.16
2022-08-28T22:33:20.505Z,63.17
2022-08-28T22:36:24.741Z,63.14
2022-08-28T22:39:32.067Z,63.87
2022-08-28T22:42:35.058Z,63.26
2022-08-28T22:45:41.313Z,64.17
2022-08-28T22:48:44.330Z,63.91
2022-08-28T22:51:49.164Z,63.92
2022-08-28T22:54:53.227Z,63.46
2022-08-28T22:57:55.982Z,62.83
2022-08-28T23:01:01.019Z,62.35
2022-08-28T23:04:04.160Z,63.09
2022-08-28T23:07:08.405Z,63.43
2022-08-28T23:10:12.506Z,63.37
2022-08-28T23:13:15.333Z,62.36
2022-08-28T23:16:23.817Z,63.23
2022-08-28T23:19:26.794Z,62.99
2022-08-28T23:22:34.459Z,61.72
2022-08-28T23:25:37.285Z,62.98
2022-08-28T23:28:40.432Z,63.28
2022-08-28T23:31:43.680Z,63.33
2022-08-28T23:34:46.481Z,63.42
2022-08-28T23:37:51.883Z,62.92
2022-08-28T23:40:55.169Z,62.74
2022-08-28T23:43:57.969Z,62.63
2022-08-28T23:47:00.789Z,63.35
2022-08-28T23:50:06.880Z,62.93
2022-08-28T23:53:11.538Z,62.75
2022-08-28T23:56:14.314Z,62.66
2022-08-28T23:59:17.193Z,62.50
